Time;durP1;ratioP1;P1;durP2;ratioP2;P2;SDS_P1;SDS_P2;PMS_P1;PMS_P2;Temp;Humidity;BMP_temperature;BMP_pressure;BME280_temperature;BME280_humidity;BME280_pressure;Samples;Min_cycle;Max_cycle;Signal;HPM_P1;HPM_P2
2023/06/25 00:01:21;;;;;;;12.15;7.70;;;;;;;;;;5051403;28;19924;-78
2023/06/25 00:03:47;;;;;;;16.00;8.15;;;;;;;;;;5048129;28;20044;-78
2023/06/25 00:06:13;;;;;;;;;;;;;;;;;;5054298;28;20069;-78
2023/06/25 00:08:39;;;;;;;13.80;7.63;;;;;;;;;;5070952;28;20326;-78
2023/06/25 00:11:05;;;;;;;;;;;;;;;;;;5035389;28;20049;-77
2023/06/25 00:13:31;;;;;;;13.73;7.82;;;;;;;;;;5051069;28;19921;-78
2023/06/25 00:15:57;;;;;;;;;;;;;;;;;;5051181;28;20040;-78
2023/06/25 00:18:26;;;;;;;13.77;8.20;;;;;;;;;;5050756;28;20015;-78
2023/06/25 00:20:53;;;;;;;14.18;8.20;;;;;;;;;;5069123;28;20093;-78
2023/06/25 00:23:19;;;;;;;16.10;8.93;;;;;;;;;;5053837;28;20048;-78
2023/06/25 00:25:45;;;;;;;;;;;;;;;;;;5051616;28;20084;-78
2023/06/25 00:28:11;;;;;;;14.15;8.10;;;;;;;;;;5033698;28;20392;-78
2023/06/25 00:30:37;;;;;;;;;;;;;;;;;;5051440;28;20066;-77
2023/06/25 00:33:03;;;;;;;14.18;7.95;;;;;;;;;;5064346;28;20373;-78
2023/06/25 00:35:39;;;;;;;14.68;8.73;;;;;;;;;;5070634;28;20052;-78
2023/06/25 00:38:05;;;;;;;15.27;9.00;;;;;;;;;;5069973;28;20087;-78
2023/06/25 00:40:31;;;;;;;19.10;9.02;;;;;;;;;;5070979;28;20139;-78
2023/06/25 00:42:58;;;;;;;;;;;;;;;;;;5068005;28;20087;-78
2023/06/25 00:45:24;;;;;;;13.68;8.40;;;;;;;;;;5050869;28;19921;-78
2023/06/25 00:47:50;;;;;;;18.73;9.50;;;;;;;;;;5053726;28;20083;-78
2023/06/25 00:50:21;;;;;;;13.80;8.77;;;;;;;;;;5067636;28;20048;-78
2023/06/25 00:52:48;;;;;;;17.00;9.55;;;;;;;;;;5049891;28;20485;-78
2023/06/25 00:55:14;;;;;;;14.88;9.15;;;;;;;;;;5049607;28;20045;-78
2023/06/25 00:57:41;;;;;;;;;;;;;;;;;;5034098;28;20045;-78
2023/06/25 01:00:13;;;;;;;14.38;9.02;;;;;;;;;;5050172;28;20440;-78
2023/06/25 01:02:46;;;;;;;16.88;9.55;;;;;;;;;;5034932;28;20128;-78
2023/06/25 01:05:18;;;;;;;16.10;8.90;;;;;;;;;;5055361;28;20079;-78
2023/06/25 01:07:45;;;;;;;15.18;9.70;;;;;;;;;;5069220;28;20060;-78
2023/06/25 01:10:12;;;;;;;14.38;9.25;;;;;;;;;;5069911;28;20044;-78
2023/06/25 01:12:39;;;;;;;16.30;9.93;;;;;;;;;;5033071;28;20048;-78
2023/06/25 01:15:05;;;;;;;14.95;8.90;;;;;;;;;;5049574;28;20049;-78
2023/06/25 01:17:32;;;;;;;16.20;9.63;;;;;;;;;;5049721;28;20135;-78
2023/06/25 01:19:58;;;;;;;17.70;10.13;;;;;;;;;;5049774;28;20052;-78
2023/06/25 01:22:31;;;;;;;16.02;9.90;;;;;;;;;;5049160;28;20041;-78
2023/06/25 01:25:00;;;;;;;16.00;10.13;;;;;;;;;;5040092;28;20041;-78
2023/06/25 01:27:26;;;;;;;15.93;9.52;;;;;;;;;;5049236;28;20622;-78
2023/06/25 01:29:53;;;;;;;15.68;9.75;;;;;;;;;;5048439;28;20060;-78
2023/06/25 01:32:22;;;;;;;16.35;9.93;;;;;;;;;;5049536;28;20052;-78
2023/06/25 01:34:48;;;;;;;17.67;9.88;;;;;;;;;;5057511;28;20059;-78
2023/06/25 01:37:17;;;;;;;;;;;;;;;;;;5069196;28;20040;-78
2023/06/25 01:39:46;;;;;;;20.17;11.30;;;;;;;;;;5070091;28;19920;-78
2023/06/25 01:42:12;;;;;;;20.55;11.27;;;;;;;;;;5068096;28;20789;-78
2023/06/25 01:44:39;;;;;;;;;;;;;;;;;;5065495;28;20623;-78
2023/06/25 01:47:05;;;;;;;18.98;12.35;;;;;;;;;;5052902;28;19920;-78
2023/06/25 01:49:31;;;;;;;24.23;13.63;;;;;;;;;;5052312;28;20059;-78
2023/06/25 01:51:57;;;;;;;24.17;13.52;;;;;;;;;;5053193;28;20127;-78
2023/06/25 01:54:23;;;;;;;;;;;;;;;;;;5049173;28;20084;-78
2023/06/25 01:56:49;;;;;;;20.92;12.70;;;;;;;;;;5033011;28;20250;-78
2023/06/25 01:59:15;;;;;;;;;;;;;;;;;;5032875;28;20053;-78
2023/06/25 02:01:42;;;;;;;20.90;12.05;;;;;;;;;;5049641;28;19927;-78
2023/06/25 02:04:08;;;;;;;21.85;12.13;;;;;;;;;;5055676;28;20505;-78
2023/06/25 02:06:34;;;;;;;;;;;;;;;;;;5054406;28;20075;-78
2023/06/25 02:09:01;;;;;;;21.05;11.88;;;;;;;;;;5057889;28;19925;-78
2023/06/25 02:11:27;;;;;;;20.40;11.50;;;;;;;;;;5073237;28;20514;-78
2023/06/25 02:13:53;;;;;;;20.15;11.43;;;;;;;;;;5073203;28;20497;-78
2023/06/25 02:16:19;;;;;;;18.38;11.98;;;;;;;;;;5056347;28;20043;-77
2023/06/25 02:18:45;;;;;;;;;;;;;;;;;;5063566;28;20053;-78
2023/06/25 02:21:11;;;;;;;17.42;10.68;;;;;;;;;;5052926;28;19924;-78
2023/06/25 02:23:37;;;;;;;18.60;10.18;;;;;;;;;;5052835;28;20052;-78
2023/06/25 02:26:03;;;;;;;;;;;;;;;;;;5037079;28;20057;-78
2023/06/25 02:28:29;;;;;;;15.75;10.27;;;;;;;;;;5054358;28;20567;-78
2023/06/25 02:30:55;;;;;;;;;;;;;;;;;;5073915;28;20523;-78
2023/06/25 02:33:21;;;;;;;18.77;10.63;;;;;;;;;;5063537;28;19979;-78
2023/06/25 02:35:47;;;;;;;;;;;;;;;;;;5053623;28;20106;-78
2023/06/25 02:38:13;;;;;;;18.38;10.70;;;;;;;;;;5054565;28;19924;-78
2023/06/25 02:40:39;;;;;;;;;;;;;;;;;;5036608;28;20049;-78
2023/06/25 02:43:05;;;;;;;19.70;11.05;;;;;;;;;;5052783;28;19946;-78
2023/06/25 02:45:31;;;;;;;18.90;11.27;;;;;;;;;;5052655;28;20147;-78
2023/06/25 02:47:57;;;;;;;;;;;;;;;;;;5056299;28;20051;-78
2023/06/25 02:50:23;;;;;;;22.20;11.13;;;;;;;;;;5055597;28;19920;-78
2023/06/25 02:52:49;;;;;;;;;;;;;;;;;;5039695;28;20048;-78
2023/06/25 02:55:15;;;;;;;19.08;10.80;;;;;;;;;;5056469;28;19946;-77
2023/06/25 02:57:41;;;;;;;;;;;;;;;;;;5061693;28;20126;-78
2023/06/25 03:00:07;;;;;;;18.77;10.90;;;;;;;;;;5072878;28;19927;-77
2023/06/25 03:02:34;;;;;;;19.38;11.60;;;;;;;;;;5055080;28;20397;-78
2023/06/25 03:04:59;;;;;;;;;;;;;;;;;;5056260;28;20185;-77
2023/06/25 03:07:26;;;;;;;18.45;10.68;;;;;;;;;;5051874;28;20240;-78
2023/06/25 03:09:52;;;;;;;17.35;10.95;;;;;;;;;;5052460;28;20048;-78
2023/06/25 03:12:18;;;;;;;;;;;;;;;;;;5052435;28;20051;-78
2023/06/25 03:14:44;;;;;;;19.02;10.43;;;;;;;;;;5054786;28;19921;-78
2023/06/25 03:17:10;;;;;;;;;;;;;;;;;;5062665;28;20041;-77
2023/06/25 03:19:36;;;;;;;22.42;10.43;;;;;;;;;;5063463;28;19924;-77
2023/06/25 03:22:01;;;;;;;;;;;;;;;;;;5056197;28;20109;-78
2023/06/25 03:24:27;;;;;;;15.82;10.02;;;;;;;;;;5050909;28;19921;-77
2023/06/25 03:26:53;;;;;;;;;;;;;;;;;;5052644;28;20460;-78
2023/06/25 03:29:19;;;;;;;16.75;9.55;;;;;;;;;;5051603;28;20019;-78
2023/06/25 03:31:45;;;;;;;;;;;;;;;;;;5036245;28;20056;-78
2023/06/25 03:34:11;;;;;;;16.27;9.48;;;;;;;;;;5051289;28;20280;-78
2023/06/25 03:36:37;;;;;;;;;;;;;;;;;;5041129;28;20102;-78
2023/06/25 03:39:03;;;;;;;15.57;9.52;;;;;;;;;;5070178;28;19920;-78
2023/06/25 03:41:29;;;;;;;;;;;;;;;;;;5056928;28;20121;-78
2023/06/25 03:43:55;;;;;;;16.67;9.95;;;;;;;;;;5054910;28;19920;-77
2023/06/25 03:46:21;;;;;;;;;;;;;;;;;;5038660;28;20045;-78
2023/06/25 03:48:47;;;;;;;15.95;9.02;;;;;;;;;;5059302;28;19974;-78
2023/06/25 03:51:13;;;;;;;;;;;;;;;;;;5052142;28;20041;-78
2023/06/25 03:53:40;;;;;;;12.32;6.30;;;;;;;;;;5050712;28;20403;-78
2023/06/25 03:56:06;;;;;;;19.88;9.98;;;;;;;;;;5051588;28;20397;-78
2023/06/25 03:58:33;;;;;;;16.50;8.38;;;;;;;;;;5065585;28;20511;-78
2023/06/25 04:01:00;;;;;;;7.75;4.78;;;;;;;;;;5061980;28;20045;-78
2023/06/25 04:03:26;;;;;;;;;;;;;;;;;;5053538;28;20397;-78
2023/06/25 04:05:52;;;;;;;12.77;8.10;;;;;;;;;;5054522;28;19927;-77
2023/06/25 04:08:18;;;;;;;19.17;10.13;;;;;;;;;;5070555;28;20149;-78
2023/06/25 04:10:44;;;;;;;;;;;;;;;;;;5057415;28;20049;-78
2023/06/25 04:13:10;;;;;;;21.63;10.35;;;;;;;;;;5051105;28;19970;-78
2023/06/25 04:15:36;;;;;;;11.85;6.65;;;;;;;;;;5050685;28;20049;-78
2023/06/25 04:18:02;;;;;;;;;;;;;;;;;;5050430;28;20048;-77
2023/06/25 04:20:28;;;;;;;19.20;10.00;;;;;;;;;;5050846;28;19927;-78
2023/06/25 04:22:54;;;;;;;14.90;8.10;;;;;;;;;;5046437;28;20058;-77
2023/06/25 04:25:21;;;;;;;14.13;7.88;;;;;;;;;;5055020;28;20131;-78
2023/06/25 04:27:47;;;;;;;17.45;9.98;;;;;;;;;;5070835;28;20048;-78
2023/06/25 04:30:13;;;;;;;18.00;10.30;;;;;;;;;;5037370;28;20135;-77
2023/06/25 04:32:40;;;;;;;18.35;10.20;;;;;;;;;;5032938;28;20064;-78
2023/06/25 04:35:06;;;;;;;13.10;7.40;;;;;;;;;;5034526;28;20052;-77
2023/06/25 04:37:32;;;;;;;14.15;7.35;;;;;;;;;;5033325;28;20040;-78
2023/06/25 04:40:00;;;;;;;;;;;;;;;;;;5051408;28;20049;-77
2023/06/25 04:42:26;;;;;;;14.48;8.48;;;;;;;;;;5040959;28;19968;-78
2023/06/25 04:44:52;;;;;;;17.02;10.45;;;;;;;;;;5050723;28;20056;-78
2023/06/25 04:47:18;;;;;;;19.20;11.07;;;;;;;;;;5047464;28;20501;-78
2023/06/25 04:49:45;;;;;;;22.90;12.05;;;;;;;;;;5032886;28;20049;-78
2023/06/25 04:52:18;;;;;;;;;;;;;;;;;;5050482;28;20076;-77
2023/06/25 04:54:44;;;;;;;16.63;10.40;;;;;;;;;;5052747;28;19921;-77
2023/06/25 04:57:10;;;;;;;;;;;;;;;;;;5052459;28;20048;-77
2023/06/25 04:59:36;;;;;;;19.83;11.20;;;;;;;;;;5049678;28;19921;-77
2023/06/25 05:02:02;;;;;;;;;;;;;;;;;;5049862;28;20045;-77
2023/06/25 05:04:28;;;;;;;19.02;11.52;;;;;;;;;;5068800;28;20361;-78
2023/06/25 05:06:54;;;;;;;;;;;;;;;;;;5070444;28;20079;-78
2023/06/25 05:09:21;;;;;;;20.75;11.88;;;;;;;;;;5051862;28;20011;-78
2023/06/25 05:11:47;;;;;;;21.13;11.85;;;;;;;;;;5069503;28;20048;-77
2023/06/25 05:14:13;;;;;;;;;;;;;;;;;;5050390;28;20057;-78
2023/06/25 05:16:39;;;;;;;22.23;11.52;;;;;;;;;;5044023;28;19979;-78
2023/06/25 05:19:05;;;;;;;;;;;;;;;;;;5049268;28;20083;-78
2023/06/25 05:21:31;;;;;;;19.90;11.93;;;;;;;;;;5054341;28;19963;-78
2023/06/25 05:24:01;;;;;;;19.85;11.73;;;;;;;;;;5053132;28;20151;-77
2023/06/25 05:26:28;;;;;;;16.50;10.40;;;;;;;;;;5053223;28;20100;-78
2023/06/25 05:28:54;;;;;;;18.48;11.40;;;;;;;;;;5057239;28;20124;-77
2023/06/25 05:31:20;;;;;;;16.17;9.13;;;;;;;;;;5050060;28;20052;-77
2023/06/25 05:33:46;;;;;;;19.70;10.98;;;;;;;;;;5031971;28;20087;-77
2023/06/25 05:36:13;;;;;;;20.92;13.13;;;;;;;;;;5056795;28;20060;-77
2023/06/25 05:38:39;;;;;;;20.00;11.30;;;;;;;;;;5035779;28;20043;-78
2023/06/25 05:41:05;;;;;;;21.73;12.90;;;;;;;;;;5053257;28;20056;-78
2023/06/25 05:43:31;;;;;;;;;;;;;;;;;;5056336;28;20091;-77
2023/06/25 05:45:57;;;;;;;22.90;12.63;;;;;;;;;;5049727;28;19983;-78
2023/06/25 05:48:23;;;;;;;;;;;;;;;;;;5032647;28;20041;-78
2023/06/25 05:50:49;;;;;;;21.55;11.38;;;;;;;;;;5050814;28;19917;-78
2023/06/25 05:53:15;;;;;;;;;;;;;;;;;;5069521;28;20480;-78
2023/06/25 05:55:42;;;;;;;24.48;12.73;;;;;;;;;;5052449;28;19928;-77
2023/06/25 05:58:08;;;;;;;22.90;12.73;;;;;;;;;;5067808;28;20043;-78
2023/06/25 06:00:34;;;;;;;;;;;;;;;;;;5069708;28;20088;-78
2023/06/25 06:03:00;;;;;;;22.05;12.93;;;;;;;;;;5063549;28;19960;-78
2023/06/25 06:05:26;;;;;;;18.60;11.57;;;;;;;;;;5062477;28;20041;-77
2023/06/25 06:07:52;;;;;;;;;;;;;;;;;;5068377;28;20521;-77
2023/06/25 06:10:18;;;;;;;22.23;13.77;;;;;;;;;;5069761;28;19968;-77
2023/06/25 06:12:44;;;;;;;16.33;10.32;;;;;;;;;;5068774;28;20052;-77
2023/06/25 06:15:11;;;;;;;17.00;11.10;;;;;;;;;;5054023;28;20037;-77
2023/06/25 06:17:37;;;;;;;25.58;14.20;;;;;;;;;;5050043;28;20052;-77
2023/06/25 06:20:03;;;;;;;;;;;;;;;;;;5053283;28;20052;-77
2023/06/25 06:22:29;;;;;;;15.27;9.23;;;;;;;;;;5060881;28;19928;-78
2023/06/25 06:24:56;;;;;;;18.13;11.68;;;;;;;;;;5052442;28;20052;-78
2023/06/25 06:27:22;;;;;;;21.42;11.52;;;;;;;;;;5069354;28;20147;-77
2023/06/25 06:29:48;;;;;;;;;;;;;;;;;;5069015;28;20052;-77
2023/06/25 06:32:14;;;;;;;16.08;9.02;;;;;;;;;;5050531;28;19924;-77
2023/06/25 06:34:41;;;;;;;18.23;12.52;;;;;;;;;;5048000;28;20135;-77
2023/06/25 06:37:07;;;;;;;22.08;13.27;;;;;;;;;;5032545;28;20053;-77
2023/06/25 06:39:34;;;;;;;21.80;15.13;;;;;;;;;;5051352;28;20504;-78
2023/06/25 06:42:00;;;;;;;14.52;9.73;;;;;;;;;;5048873;28;20083;-77
2023/06/25 06:44:26;;;;;;;19.17;10.00;;;;;;;;;;5065358;28;20131;-77
2023/06/25 06:46:52;;;;;;;16.25;10.07;;;;;;;;;;5051804;28;20288;-77
2023/06/25 06:49:19;;;;;;;13.68;8.05;;;;;;;;;;5048146;28;20131;-77
2023/06/25 06:51:45;;;;;;;11.18;6.88;;;;;;;;;;5048745;28;20045;-77
2023/06/25 06:54:11;;;;;;;19.50;13.40;;;;;;;;;;5035748;28;20083;-77
2023/06/25 06:56:38;;;;;;;10.52;7.47;;;;;;;;;;5051960;28;20040;-77
2023/06/25 06:59:05;;;;;;;14.25;9.65;;;;;;;;;;5065379;28;20043;-77
2023/06/25 07:01:31;;;;;;;14.80;9.68;;;;;;;;;;5055576;28;20084;-77
2023/06/25 07:03:57;;;;;;;10.27;7.20;;;;;;;;;;5054217;28;20055;-77
2023/06/25 07:06:23;;;;;;;15.98;11.27;;;;;;;;;;5052200;28;20500;-77
2023/06/25 07:08:49;;;;;;;12.80;8.70;;;;;;;;;;5051628;28;20106;-77
2023/06/25 07:11:18;;;;;;;;;;;;;;;;;;5052866;28;20052;-77
2023/06/25 07:13:44;;;;;;;18.08;10.93;;;;;;;;;;5051829;28;20276;-77
2023/06/25 07:16:10;;;;;;;16.88;12.25;;;;;;;;;;5072404;28;20071;-77
2023/06/25 07:18:37;;;;;;;19.73;14.20;;;;;;;;;;5068103;28;20123;-78
2023/06/25 07:21:03;;;;;;;15.02;10.20;;;;;;;;;;5072496;28;20066;-77
2023/06/25 07:23:29;;;;;;;12.60;6.85;;;;;;;;;;5055027;28;20052;-77
2023/06/25 07:25:55;;;;;;;19.05;14.20;;;;;;;;;;5055257;28;20631;-77
2023/06/25 07:28:21;;;;;;;18.63;14.35;;;;;;;;;;5055293;28;20051;-78
2023/06/25 07:30:48;;;;;;;23.27;14.57;;;;;;;;;;5068897;28;20481;-77
2023/06/25 07:33:14;;;;;;;23.77;15.98;;;;;;;;;;5051339;28;20049;-77
2023/06/25 07:35:40;;;;;;;19.50;13.68;;;;;;;;;;5035067;28;20118;-77
2023/06/25 07:38:06;;;;;;;21.27;14.70;;;;;;;;;;5051506;28;20057;-77
2023/06/25 07:40:32;;;;;;;22.27;15.68;;;;;;;;;;5035451;28;20044;-77
2023/06/25 07:42:58;;;;;;;20.85;13.23;;;;;;;;;;5034098;28;20583;-77
2023/06/25 07:45:24;;;;;;;21.30;14.45;;;;;;;;;;5035373;28;20053;-77
2023/06/25 07:47:50;;;;;;;20.52;14.48;;;;;;;;;;5067945;28;20044;-77
2023/06/25 07:50:16;;;;;;;20.63;14.82;;;;;;;;;;5046326;28;20497;-77
2023/06/25 07:52:42;;;;;;;14.07;9.45;;;;;;;;;;5050668;28;20433;-78
2023/06/25 07:55:08;;;;;;;20.08;13.15;;;;;;;;;;5051744;28;20053;-77
2023/06/25 07:57:35;;;;;;;19.30;14.00;;;;;;;;;;5034917;28;20060;-78
2023/06/25 08:00:01;;;;;;;20.75;13.55;;;;;;;;;;5051046;28;20045;-77
2023/06/25 08:02:27;;;;;;;22.35;12.48;;;;;;;;;;5051647;28;20104;-78
2023/06/25 08:04:53;;;;;;;22.05;13.88;;;;;;;;;;5049303;28;20059;-77
2023/06/25 08:07:19;;;;;;;17.27;11.73;;;;;;;;;;5053867;28;20060;-77
2023/06/25 08:09:46;;;;;;;21.70;12.35;;;;;;;;;;5054410;28;20048;-77
2023/06/25 08:12:14;;;;;;;19.40;11.43;;;;;;;;;;5054600;28;20056;-78
2023/06/25 08:14:40;;;;;;;10.07;6.28;;;;;;;;;;5038000;28;20053;-78
2023/06/25 08:17:07;;;;;;;15.90;11.20;;;;;;;;;;5053726;28;20485;-77
2023/06/25 08:19:33;;;;;;;15.88;10.32;;;;;;;;;;5052709;28;20440;-77
2023/06/25 08:21:59;;;;;;;16.75;10.25;;;;;;;;;;5058143;28;20607;-77
2023/06/25 08:24:25;;;;;;;14.40;8.63;;;;;;;;;;5053941;28;20453;-77
2023/06/25 08:26:52;;;;;;;11.82;7.95;;;;;;;;;;5053364;28;20071;-78
2023/06/25 08:29:18;;;;;;;14.52;10.35;;;;;;;;;;5070927;28;20055;-77
2023/06/25 08:31:44;;;;;;;16.58;11.00;;;;;;;;;;5063500;28;20509;-77
2023/06/25 08:34:10;;;;;;;11.52;7.93;;;;;;;;;;5033596;28;20056;-77
2023/06/25 08:36:36;;;;;;;15.75;9.85;;;;;;;;;;5051212;28;20055;-77
2023/06/25 08:39:02;;;;;;;10.25;6.75;;;;;;;;;;5032822;28;20148;-77
2023/06/25 08:41:29;;;;;;;13.25;9.15;;;;;;;;;;5047204;28;20058;-77
2023/06/25 08:43:55;;;;;;;11.35;7.97;;;;;;;;;;5053479;28;20047;-77
2023/06/25 08:46:23;;;;;;;13.57;8.18;;;;;;;;;;5070897;28;20135;-77
2023/06/25 08:48:51;;;;;;;8.85;5.88;;;;;;;;;;5059689;28;20049;-77
2023/06/25 08:51:22;;;;;;;9.63;6.13;;;;;;;;;;5050825;28;20080;-77
2023/06/25 08:53:48;;;;;;;11.13;6.60;;;;;;;;;;5049828;28;20166;-77
2023/06/25 08:56:16;;;;;;;9.55;5.60;;;;;;;;;;5050248;28;20487;-77
2023/06/25 08:58:42;;;;;;;11.07;5.07;;;;;;;;;;5049437;28;20075;-77
2023/06/25 09:01:08;;;;;;;9.57;5.78;;;;;;;;;;5050389;28;20057;-77
2023/06/25 09:03:34;;;;;;;9.77;5.93;;;;;;;;;;5052691;28;20063;-77
2023/06/25 09:06:00;;;;;;;8.45;4.82;;;;;;;;;;5036864;28;20041;-77
2023/06/25 09:08:27;;;;;;;7.82;4.57;;;;;;;;;;5053248;28;20067;-77
2023/06/25 09:10:54;;;;;;;10.45;4.72;;;;;;;;;;5050254;28;20043;-77
2023/06/25 09:13:27;;;;;;;8.70;4.55;;;;;;;;;;5049523;28;20056;-77
2023/06/25 09:15:54;;;;;;;8.82;3.97;;;;;;;;;;5049443;28;20555;-78
2023/06/25 09:18:23;;;;;;;11.00;4.55;;;;;;;;;;5049171;28;20140;-77
2023/06/25 09:20:50;;;;;;;9.82;5.18;;;;;;;;;;5033501;28;20516;-78
2023/06/25 09:23:25;;;;;;;8.43;4.85;;;;;;;;;;5034091;28;20043;-77
2023/06/25 09:25:51;;;;;;;6.95;4.00;;;;;;;;;;5051855;28;20048;-77
2023/06/25 09:28:18;;;;;;;7.93;4.20;;;;;;;;;;5033294;28;20137;-77
2023/06/25 09:30:44;;;;;;;9.30;4.68;;;;;;;;;;5033433;28;20064;-77
2023/06/25 09:33:11;;;;;;;8.93;5.32;;;;;;;;;;5049282;28;20048;-77
2023/06/25 09:35:37;;;;;;;11.38;5.90;;;;;;;;;;5052885;28;20516;-77
2023/06/25 09:38:04;;;;;;;5.13;3.17;;;;;;;;;;5068764;28;20370;-77
2023/06/25 09:40:30;;;;;;;4.82;3.00;;;;;;;;;;5070015;28;20076;-77
2023/06/25 09:42:57;;;;;;;5.05;2.97;;;;;;;;;;5048987;28;20047;-77
2023/06/25 09:45:23;;;;;;;9.23;4.70;;;;;;;;;;5039517;28;20056;-77
2023/06/25 09:47:50;;;;;;;9.13;4.22;;;;;;;;;;5051694;28;20052;-78
2023/06/25 09:50:20;;;;;;;7.05;2.92;;;;;;;;;;5069497;28;20126;-77
2023/06/25 09:52:51;;;;;;;11.10;4.35;;;;;;;;;;5065284;28;20106;-77
2023/06/25 09:55:17;;;;;;;11.43;4.53;;;;;;;;;;5049782;28;20045;-77
2023/06/25 09:57:44;;;;;;;8.88;5.00;;;;;;;;;;5049471;28;20041;-77
2023/06/25 10:00:11;;;;;;;6.75;3.80;;;;;;;;;;5049296;28;20052;-77
2023/06/25 10:02:37;;;;;;;5.60;3.35;;;;;;;;;;5048843;28;20049;-77
2023/06/25 10:05:03;;;;;;;7.60;4.70;;;;;;;;;;5050484;28;20049;-77
2023/06/25 10:07:30;;;;;;;11.00;6.13;;;;;;;;;;5038565;28;20068;-77
2023/06/25 10:09:56;;;;;;;8.88;5.28;;;;;;;;;;5052528;28;20081;-77
2023/06/25 10:12:22;;;;;;;6.95;4.22;;;;;;;;;;5053034;28;20370;-77
2023/06/25 10:14:49;;;;;;;8.23;4.35;;;;;;;;;;5069276;28;20044;-77
2023/06/25 10:17:15;;;;;;;9.15;5.03;;;;;;;;;;5048959;28;20378;-77
2023/06/25 10:19:56;;;;;;;9.30;4.95;;;;;;;;;;5048375;28;20155;-77
2023/06/25 10:22:23;;;;;;;9.75;4.68;;;;;;;;;;5048851;28;20048;-77
2023/06/25 10:24:51;;;;;;;7.25;3.72;;;;;;;;;;5032616;28;20551;-77
2023/06/25 10:27:26;;;;;;;7.72;3.50;;;;;;;;;;5062861;28;20041;-77
2023/06/25 10:29:53;;;;;;;7.63;3.72;;;;;;;;;;5070766;28;20515;-77
2023/06/25 10:32:19;;;;;;;8.75;4.68;;;;;;;;;;5052838;28;20147;-77
2023/06/25 10:34:51;;;;;;;6.72;4.10;;;;;;;;;;5050557;28;20060;-77
2023/06/25 10:37:17;;;;;;;9.23;4.15;;;;;;;;;;5066239;28;20447;-78
2023/06/25 10:39:43;;;;;;;8.07;3.85;;;;;;;;;;5053299;28;20166;-77
2023/06/25 10:42:12;;;;;;;8.23;4.75;;;;;;;;;;5052344;28;20053;-77
2023/06/25 10:44:38;;;;;;;6.60;3.50;;;;;;;;;;5036313;28;20122;-77
2023/06/25 10:47:08;;;;;;;9.50;4.18;;;;;;;;;;5052372;28;20480;-77
2023/06/25 10:49:35;;;;;;;6.38;3.33;;;;;;;;;;5052080;28;20136;-77
2023/06/25 10:52:05;;;;;;;10.13;4.40;;;;;;;;;;5052491;28;20041;-77
2023/06/25 10:54:32;;;;;;;8.68;4.70;;;;;;;;;;5052920;28;20404;-77
2023/06/25 10:57:07;;;;;;;4.35;2.88;;;;;;;;;;5055317;28;20106;-77
2023/06/25 10:59:33;;;;;;;7.90;3.80;;;;;;;;;;5072859;28;20076;-77
2023/06/25 11:02:11;;;;;;;6.07;3.47;;;;;;;;;;5069941;28;20040;-77
2023/06/25 11:04:37;;;;;;;4.60;2.88;;;;;;;;;;5059702;28;20053;-77
2023/06/25 11:07:04;;;;;;;5.25;3.30;;;;;;;;;;5066605;28;20053;-77
2023/06/25 11:09:30;;;;;;;7.60;3.78;;;;;;;;;;5055473;28;20055;-77
2023/06/25 11:11:56;;;;;;;6.05;3.33;;;;;;;;;;5055501;28;20135;-77
2023/06/25 11:14:22;;;;;;;8.02;4.90;;;;;;;;;;5051897;28;20053;-77
2023/06/25 11:16:48;;;;;;;7.63;4.60;;;;;;;;;;5052400;28;20497;-77
2023/06/25 11:19:14;;;;;;;7.03;4.38;;;;;;;;;;5050823;28;20041;-77
2023/06/25 11:21:40;;;;;;;5.82;3.63;;;;;;;;;;5037414;28;20087;-77
2023/06/25 11:24:10;;;;;;;3.45;2.35;;;;;;;;;;5068510;28;20044;-77
2023/06/25 11:26:41;;;;;;;7.45;3.63;;;;;;;;;;5072449;28;20047;-77
2023/06/25 11:29:11;;;;;;;7.78;4.88;;;;;;;;;;5064592;28;20478;-77
2023/06/25 11:31:55;;;;;;;7.88;4.45;;;;;;;;;;5052412;28;20393;-77
2023/06/25 11:34:22;;;;;;;6.82;4.22;;;;;;;;;;5050714;28;20055;-77
2023/06/25 11:36:48;;;;;;;6.07;4.18;;;;;;;;;;5051574;28;20055;-77
2023/06/25 11:39:15;;;;;;;7.97;4.03;;;;;;;;;;5069956;28;20062;-77
2023/06/25 11:41:41;;;;;;;6.35;3.22;;;;;;;;;;5055564;28;20143;-77
2023/06/25 11:44:17;;;;;;;5.55;3.25;;;;;;;;;;5054507;28;20131;-77
2023/06/25 11:46:44;;;;;;;7.63;4.50;;;;;;;;;;5070313;28;20098;-77
2023/06/25 11:49:10;;;;;;;11.20;4.70;;;;;;;;;;5036287;28;20049;-78
2023/06/25 11:51:36;;;;;;;7.50;4.72;;;;;;;;;;5055428;28;20052;-77
2023/06/25 11:54:02;;;;;;;9.00;4.75;;;;;;;;;;5071338;28;20048;-77
2023/06/25 11:56:28;;;;;;;6.88;4.35;;;;;;;;;;5064356;28;20040;-78
2023/06/25 11:58:54;;;;;;;7.00;4.85;;;;;;;;;;5051412;28;20473;-78
2023/06/25 12:01:20;;;;;;;5.82;3.67;;;;;;;;;;5051069;28;20041;-78
2023/06/25 12:03:46;;;;;;;10.15;4.20;;;;;;;;;;5034088;28;20512;-78
2023/06/25 12:06:12;;;;;;;8.13;4.78;;;;;;;;;;5034544;28;20405;-78
2023/06/25 12:08:38;;;;;;;3.85;2.90;;;;;;;;;;5034456;28;20057;-78
2023/06/25 12:11:04;;;;;;;6.97;4.03;;;;;;;;;;5050804;28;20052;-78
2023/06/25 12:13:30;;;;;;;8.90;4.70;;;;;;;;;;5062678;28;20052;-78
2023/06/25 12:15:56;;;;;;;5.07;2.97;;;;;;;;;;5071359;28;20041;-78
2023/06/25 12:18:22;;;;;;;7.55;4.35;;;;;;;;;;5034778;28;20045;-78
2023/06/25 12:20:49;;;;;;;6.28;4.40;;;;;;;;;;5035076;28;20055;-78
2023/06/25 12:23:15;;;;;;;5.40;4.00;;;;;;;;;;5050389;28;20135;-78
2023/06/25 12:25:41;;;;;;;6.03;4.45;;;;;;;;;;5034806;28;20045;-78
2023/06/25 12:28:07;;;;;;;7.55;4.50;;;;;;;;;;5050558;28;20136;-79
2023/06/25 12:30:33;;;;;;;6.40;4.40;;;;;;;;;;5051074;28;20045;-78
2023/06/25 12:32:59;;;;;;;8.25;4.50;;;;;;;;;;5053759;28;20048;-78
2023/06/25 12:35:25;;;;;;;6.90;3.92;;;;;;;;;;5053569;28;20051;-78
2023/06/25 12:37:52;;;;;;;6.63;3.92;;;;;;;;;;5033268;28;20088;-78
2023/06/25 12:40:18;;;;;;;7.32;4.03;;;;;;;;;;5040427;28;20080;-78
2023/06/25 12:42:44;;;;;;;6.13;4.07;;;;;;;;;;5070227;28;20480;-78
2023/06/25 12:45:10;;;;;;;7.03;3.88;;;;;;;;;;5037431;28;20053;-79
2023/06/25 12:47:36;;;;;;;8.77;4.07;;;;;;;;;;5069677;28;20080;-78
2023/06/25 12:50:02;;;;;;;5.57;3.75;;;;;;;;;;5053412;28;20099;-78
2023/06/25 12:52:28;;;;;;;8.45;4.15;;;;;;;;;;5062785;28;20052;-78
2023/06/25 12:54:54;;;;;;;6.18;3.80;;;;;;;;;;5034052;28;20083;-78
2023/06/25 12:57:20;;;;;;;6.13;3.53;;;;;;;;;;5050089;28;20103;-78
2023/06/25 12:59:46;;;;;;;7.35;4.00;;;;;;;;;;5033192;28;20075;-78
2023/06/25 13:02:12;;;;;;;7.28;4.00;;;;;;;;;;5036589;28;20040;-78
2023/06/25 13:04:38;;;;;;;7.97;4.03;;;;;;;;;;5049622;28;20079;-77
2023/06/25 13:07:05;;;;;;;6.22;4.00;;;;;;;;;;5033423;28;20135;-77
2023/06/25 13:09:32;;;;;;;7.40;3.70;;;;;;;;;;5033069;28;20073;-78
2023/06/25 13:11:58;;;;;;;6.20;3.42;;;;;;;;;;5050250;28;20053;-77
2023/06/25 13:14:24;;;;;;;6.22;3.80;;;;;;;;;;5033140;28;20063;-77
2023/06/25 13:16:52;;;;;;;6.25;4.05;;;;;;;;;;5048166;28;20564;-78
2023/06/25 13:19:18;;;;;;;6.93;4.00;;;;;;;;;;5060440;28;20045;-77
2023/06/25 13:21:46;;;;;;;6.43;4.03;;;;;;;;;;5056017;28;20084;-77
2023/06/25 13:24:12;;;;;;;8.68;4.40;;;;;;;;;;5049212;28;20048;-79
2023/06/25 13:26:38;;;;;;;7.70;3.97;;;;;;;;;;5057558;28;20064;-77
2023/06/25 13:29:05;;;;;;;7.43;3.83;;;;;;;;;;5069820;28;20493;-77
2023/06/25 13:31:31;;;;;;;6.53;3.80;;;;;;;;;;5069489;28;20103;-77
2023/06/25 13:33:57;;;;;;;6.25;4.35;;;;;;;;;;5068933;28;20396;-78
2023/06/25 13:36:23;;;;;;;5.63;3.70;;;;;;;;;;5069314;28;20182;-77
2023/06/25 13:38:49;;;;;;;6.00;3.78;;;;;;;;;;5069447;28;20059;-77
2023/06/25 13:41:15;;;;;;;7.60;3.85;;;;;;;;;;5062377;28;20049;-78
2023/06/25 13:43:41;;;;;;;5.65;3.60;;;;;;;;;;5049742;28;20125;-77
2023/06/25 13:46:07;;;;;;;4.85;3.25;;;;;;;;;;5069536;28;20058;-78
2023/06/25 13:48:33;;;;;;;6.03;3.90;;;;;;;;;;5068235;28;20036;-77
2023/06/25 13:51:00;;;;;;;6.88;4.28;;;;;;;;;;5052886;28;20048;-78
2023/06/25 13:53:27;;;;;;;6.20;3.88;;;;;;;;;;5048632;28;20048;-77
2023/06/25 13:55:53;;;;;;;6.00;4.18;;;;;;;;;;5049708;28;20052;-77
2023/06/25 13:58:19;;;;;;;6.45;4.32;;;;;;;;;;5048664;28;20401;-77
2023/06/25 14:00:45;;;;;;;9.05;3.85;;;;;;;;;;5049543;28;20048;-77
2023/06/25 14:03:11;;;;;;;6.60;3.85;;;;;;;;;;5031363;28;20063;-77
2023/06/25 14:05:37;;;;;;;7.30;4.10;;;;;;;;;;5040792;28;20443;-77
2023/06/25 14:08:04;;;;;;;6.43;4.00;;;;;;;;;;5068464;28;20052;-78
2023/06/25 14:10:30;;;;;;;7.45;4.18;;;;;;;;;;5049367;28;20383;-77
2023/06/25 14:12:58;;;;;;;8.35;3.83;;;;;;;;;;5049016;28;20053;-77
2023/06/25 14:15:25;;;;;;;7.47;3.97;;;;;;;;;;5048703;28;20478;-78
2023/06/25 14:17:51;;;;;;;6.28;4.43;;;;;;;;;;5037956;28;20126;-78
2023/06/25 14:20:17;;;;;;;8.07;4.13;;;;;;;;;;5035904;28;20052;-78
2023/06/25 14:22:43;;;;;;;6.47;4.30;;;;;;;;;;5051554;28;20045;-78
2023/06/25 14:25:09;;;;;;;5.95;4.13;;;;;;;;;;5032900;28;20041;-77
2023/06/25 14:27:35;;;;;;;6.82;4.30;;;;;;;;;;5046264;28;20125;-78
2023/06/25 14:30:01;;;;;;;6.82;4.18;;;;;;;;;;5032906;28;20500;-77
2023/06/25 14:32:28;;;;;;;6.10;4.25;;;;;;;;;;5051284;28;20439;-77
2023/06/25 14:34:54;;;;;;;7.60;4.70;;;;;;;;;;5068587;28;20076;-78
2023/06/25 14:37:20;;;;;;;9.95;5.00;;;;;;;;;;5040012;28;20055;-78
2023/06/25 14:39:46;;;;;;;8.30;4.38;;;;;;;;;;5049366;28;20041;-78
2023/06/25 14:42:12;;;;;;;8.13;4.10;;;;;;;;;;5032676;28;20061;-78
2023/06/25 14:44:38;;;;;;;6.75;4.60;;;;;;;;;;5048528;28;20137;-78